sensor_id;sensor_type;location;lat;lon;timestamp;temperature;humidity
52275;DHT22;38228;50.940;4.024;2024-01-30T00:01:52;9.80;99.90
52275;DHT22;38228;50.940;4.024;2024-01-30T00:04:18;9.90;99.90
52275;DHT22;38228;50.940;4.024;2024-01-30T00:06:44;9.90;99.90
52275;DHT22;38228;50.940;4.024;2024-01-30T00:09:10;9.80;99.90
52275;DHT22;38228;50.940;4.024;2024-01-30T00:11:36;9.90;99.90
52275;DHT22;38228;50.940;4.024;2024-01-30T00:14:05;9.80;99.90
52275;DHT22;38228;50.940;4.024;2024-01-30T00:16:31;9.90;99.90
52275;DHT22;38228;50.940;4.024;2024-01-30T00:18:57;10.00;99.90
52275;DHT22;38228;50.940;4.024;2024-01-30T00:21:23;10.10;99.90
52275;DHT22;38228;50.940;4.024;2024-01-30T00:23:49;10.20;99.90
52275;DHT22;38228;50.940;4.024;2024-01-30T00:26:15;10.30;99.90
52275;DHT22;38228;50.940;4.024;2024-01-30T00:28:41;10.30;99.90
52275;DHT22;38228;50.940;4.024;2024-01-30T00:31:07;10.30;99.90
52275;DHT22;38228;50.940;4.024;2024-01-30T00:33:34;10.20;99.90
52275;DHT22;38228;50.940;4.024;2024-01-30T00:36:00;10.20;99.90
52275;DHT22;38228;50.940;4.024;2024-01-30T00:38:25;10.10;99.90
52275;DHT22;38228;50.940;4.024;2024-01-30T00:40:51;10.10;99.90
52275;DHT22;38228;50.940;4.024;2024-01-30T00:43:17;10.00;99.90
52275;DHT22;38228;50.940;4.024;2024-01-30T00:45:46;10.00;99.90
52275;DHT22;38228;50.940;4.024;2024-01-30T00:48:12;9.90;99.90
52275;DHT22;38228;50.940;4.024;2024-01-30T00:50:37;9.90;99.90
52275;DHT22;38228;50.940;4.024;2024-01-30T00:53:03;9.90;99.90
52275;DHT22;38228;50.940;4.024;2024-01-30T00:55:29;9.90;99.90
52275;DHT22;38228;50.940;4.024;2024-01-30T00:57:55;9.90;99.90
52275;DHT22;38228;50.940;4.024;2024-01-30T01:00:20;9.90;99.90
52275;DHT22;38228;50.940;4.024;2024-01-30T01:02:47;9.90;99.90
52275;DHT22;38228;50.940;4.024;2024-01-30T01:05:13;10.00;99.90
52275;DHT22;38228;50.940;4.024;2024-01-30T01:07:38;10.10;99.90
52275;DHT22;38228;50.940;4.024;2024-01-30T01:10:06;10.10;99.90
52275;DHT22;38228;50.940;4.024;2024-01-30T01:12:31;10.00;99.90
52275;DHT22;38228;50.940;4.024;2024-01-30T01:14:57;10.10;99.90
52275;DHT22;38228;50.940;4.024;2024-01-30T01:17:23;10.10;99.90
52275;DHT22;38228;50.940;4.024;2024-01-30T01:19:49;10.10;99.90
52275;DHT22;38228;50.940;4.024;2024-01-30T01:22:16;10.00;99.90
52275;DHT22;38228;50.940;4.024;2024-01-30T01:24:42;10.00;99.90
52275;DHT22;38228;50.940;4.024;2024-01-30T01:27:08;10.00;99.90
52275;DHT22;38228;50.940;4.024;2024-01-30T01:29:34;9.90;99.90
52275;DHT22;38228;50.940;4.024;2024-01-30T01:31:59;9.90;99.90
52275;DHT22;38228;50.940;4.024;2024-01-30T01:34:25;9.80;99.90
52275;DHT22;38228;50.940;4.024;2024-01-30T01:36:51;9.80;99.90
52275;DHT22;38228;50.940;4.024;2024-01-30T01:39:17;9.80;99.90
52275;DHT22;38228;50.940;4.024;2024-01-30T01:41:43;9.90;99.90
52275;DHT22;38228;50.940;4.024;2024-01-30T01:44:09;9.80;99.90
52275;DHT22;38228;50.940;4.024;2024-01-30T01:46:35;9.90;99.90
52275;DHT22;38228;50.940;4.024;2024-01-30T01:49:03;9.90;99.90
52275;DHT22;38228;50.940;4.024;2024-01-30T01:51:34;9.90;99.90
52275;DHT22;38228;50.940;4.024;2024-01-30T01:54:04;9.80;99.90
52275;DHT22;38228;50.940;4.024;2024-01-30T01:56:34;9.80;99.90
52275;DHT22;38228;50.940;4.024;2024-01-30T01:59:04;9.80;99.90
52275;DHT22;38228;50.940;4.024;2024-01-30T02:01:32;9.90;99.90
52275;DHT22;38228;50.940;4.024;2024-01-30T02:04:01;10.00;99.90
52275;DHT22;38228;50.940;4.024;2024-01-30T02:06:27;9.90;99.90
52275;DHT22;38228;50.940;4.024;2024-01-30T02:08:54;9.90;99.90
52275;DHT22;38228;50.940;4.024;2024-01-30T02:11:20;9.80;99.90
52275;DHT22;38228;50.940;4.024;2024-01-30T02:13:47;9.80;99.90
52275;DHT22;38228;50.940;4.024;2024-01-30T02:16:13;9.90;99.90
52275;DHT22;38228;50.940;4.024;2024-01-30T02:18:39;10.00;99.90
52275;DHT22;38228;50.940;4.024;2024-01-30T02:21:09;10.00;99.90
52275;DHT22;38228;50.940;4.024;2024-01-30T02:23:34;10.00;99.90
52275;DHT22;38228;50.940;4.024;2024-01-30T02:26:00;10.00;99.90
52275;DHT22;38228;50.940;4.024;2024-01-30T02:28:26;10.00;99.90
52275;DHT22;38228;50.940;4.024;2024-01-30T02:30:53;10.10;99.90
52275;DHT22;38228;50.940;4.024;2024-01-30T02:33:19;10.00;99.90
52275;DHT22;38228;50.940;4.024;2024-01-30T02:35:44;10.10;99.90
52275;DHT22;38228;50.940;4.024;2024-01-30T02:38:10;10.10;99.90
52275;DHT22;38228;50.940;4.024;2024-01-30T02:40:36;10.20;99.90
52275;DHT22;38228;50.940;4.024;2024-01-30T02:43:04;10.20;99.90
52275;DHT22;38228;50.940;4.024;2024-01-30T02:45:29;10.30;99.90
52275;DHT22;38228;50.940;4.024;2024-01-30T02:47:55;10.30;99.90
52275;DHT22;38228;50.940;4.024;2024-01-30T02:50:21;10.40;99.90
52275;DHT22;38228;50.940;4.024;2024-01-30T02:52:47;10.50;99.90
52275;DHT22;38228;50.940;4.024;2024-01-30T02:55:12;10.40;99.90
52275;DHT22;38228;50.940;4.024;2024-01-30T02:57:39;10.30;99.90
52275;DHT22;38228;50.940;4.024;2024-01-30T03:00:05;10.30;99.90
52275;DHT22;38228;50.940;4.024;2024-01-30T03:02:32;10.40;99.90
52275;DHT22;38228;50.940;4.024;2024-01-30T03:04:59;10.40;99.90
52275;DHT22;38228;50.940;4.024;2024-01-30T03:07:25;10.40;99.90
52275;DHT22;38228;50.940;4.024;2024-01-30T03:09:51;10.40;99.90
52275;DHT22;38228;50.940;4.024;2024-01-30T03:12:17;10.50;99.90
52275;DHT22;38228;50.940;4.024;2024-01-30T03:14:42;10.50;99.90
52275;DHT22;38228;50.940;4.024;2024-01-30T03:17:08;10.40;99.90
52275;DHT22;38228;50.940;4.024;2024-01-30T03:19:34;10.50;99.90
52275;DHT22;38228;50.940;4.024;2024-01-30T03:21:59;10.60;99.90
52275;DHT22;38228;50.940;4.024;2024-01-30T03:24:25;10.50;99.90
52275;DHT22;38228;50.940;4.024;2024-01-30T03:26:51;10.60;99.90
52275;DHT22;38228;50.940;4.024;2024-01-30T03:29:17;10.70;99.90
52275;DHT22;38228;50.940;4.024;2024-01-30T03:31:43;10.60;99.90
52275;DHT22;38228;50.940;4.024;2024-01-30T03:34:08;10.50;99.90
52275;DHT22;38228;50.940;4.024;2024-01-30T03:36:34;10.50;99.90
52275;DHT22;38228;50.940;4.024;2024-01-30T03:39:00;10.50;99.90
52275;DHT22;38228;50.940;4.024;2024-01-30T03:41:26;10.40;99.90
52275;DHT22;38228;50.940;4.024;2024-01-30T03:43:52;10.50;99.90
52275;DHT22;38228;50.940;4.024;2024-01-30T03:46:18;10.70;99.90
52275;DHT22;38228;50.940;4.024;2024-01-30T03:48:45;10.70;99.90
52275;DHT22;38228;50.940;4.024;2024-01-30T03:51:11;10.70;99.90
52275;DHT22;38228;50.940;4.024;2024-01-30T03:53:40;10.80;99.90
52275;DHT22;38228;50.940;4.024;2024-01-30T03:56:07;10.80;99.90
52275;DHT22;38228;50.940;4.024;2024-01-30T03:58:32;10.70;99.90
52275;DHT22;38228;50.940;4.024;2024-01-30T04:00:58;10.70;99.90
52275;DHT22;38228;50.940;4.024;2024-01-30T04:03:24;10.70;99.90
52275;DHT22;38228;50.940;4.024;2024-01-30T04:05:51;10.80;99.90
52275;DHT22;38228;50.940;4.024;2024-01-30T04:08:17;10.80;99.90
52275;DHT22;38228;50.940;4.024;2024-01-30T04:10:43;10.70;99.90
52275;DHT22;38228;50.940;4.024;2024-01-30T04:13:09;10.60;99.90
52275;DHT22;38228;50.940;4.024;2024-01-30T04:15:35;10.60;99.90
52275;DHT22;38228;50.940;4.024;2024-01-30T04:18:00;10.60;99.90
52275;DHT22;38228;50.940;4.024;2024-01-30T04:20:26;10.60;99.90
52275;DHT22;38228;50.940;4.024;2024-01-30T04:22:52;10.60;99.90
52275;DHT22;38228;50.940;4.024;2024-01-30T04:25:18;10.50;99.90
52275;DHT22;38228;50.940;4.024;2024-01-30T04:27:44;10.40;99.90
52275;DHT22;38228;50.940;4.024;2024-01-30T04:30:10;10.40;99.90
52275;DHT22;38228;50.940;4.024;2024-01-30T04:32:36;10.40;99.90
52275;DHT22;38228;50.940;4.024;2024-01-30T04:35:03;10.40;99.90
52275;DHT22;38228;50.940;4.024;2024-01-30T04:37:28;10.50;99.90
52275;DHT22;38228;50.940;4.024;2024-01-30T04:39:54;10.40;99.90
52275;DHT22;38228;50.940;4.024;2024-01-30T04:42:20;10.40;99.90
52275;DHT22;38228;50.940;4.024;2024-01-30T04:44:46;10.40;99.90
52275;DHT22;38228;50.940;4.024;2024-01-30T04:47:11;10.30;99.90
52275;DHT22;38228;50.940;4.024;2024-01-30T04:49:40;10.30;99.90
52275;DHT22;38228;50.940;4.024;2024-01-30T04:52:07;10.40;99.90
52275;DHT22;38228;50.940;4.024;2024-01-30T04:54:33;10.40;99.90
52275;DHT22;38228;50.940;4.024;2024-01-30T04:57:00;10.50;99.90
52275;DHT22;38228;50.940;4.024;2024-01-30T04:59:26;10.40;99.90
52275;DHT22;38228;50.940;4.024;2024-01-30T05:01:52;10.50;99.90
52275;DHT22;38228;50.940;4.024;2024-01-30T05:04:17;10.50;99.90
52275;DHT22;38228;50.940;4.024;2024-01-30T05:06:43;10.50;99.90
52275;DHT22;38228;50.940;4.024;2024-01-30T05:09:09;10.50;99.90
52275;DHT22;38228;50.940;4.024;2024-01-30T05:11:38;10.40;99.90
52275;DHT22;38228;50.940;4.024;2024-01-30T05:14:05;10.40;99.90
52275;DHT22;38228;50.940;4.024;2024-01-30T05:16:31;10.50;99.90
52275;DHT22;38228;50.940;4.024;2024-01-30T05:18:58;10.40;99.90
52275;DHT22;38228;50.940;4.024;2024-01-30T05:21:23;10.40;99.90
52275;DHT22;38228;50.940;4.024;2024-01-30T05:23:49;10.40;99.90
52275;DHT22;38228;50.940;4.024;2024-01-30T05:26:15;10.30;99.90
52275;DHT22;38228;50.940;4.024;2024-01-30T05:28:42;10.40;99.90
52275;DHT22;38228;50.940;4.024;2024-01-30T05:31:10;10.40;99.90
52275;DHT22;38228;50.940;4.024;2024-01-30T05:33:36;10.40;99.90
52275;DHT22;38228;50.940;4.024;2024-01-30T05:36:02;10.40;99.90
52275;DHT22;38228;50.940;4.024;2024-01-30T05:38:29;10.40;99.90
52275;DHT22;38228;50.940;4.024;2024-01-30T05:40:55;10.40;99.90
52275;DHT22;38228;50.940;4.024;2024-01-30T05:43:23;10.30;99.90
52275;DHT22;38228;50.940;4.024;2024-01-30T05:45:49;10.30;99.90
52275;DHT22;38228;50.940;4.024;2024-01-30T05:48:16;10.30;99.90
52275;DHT22;38228;50.940;4.024;2024-01-30T05:50:41;10.30;99.90
52275;DHT22;38228;50.940;4.024;2024-01-30T05:53:07;10.20;99.90
52275;DHT22;38228;50.940;4.024;2024-01-30T05:55:33;10.20;99.90
52275;DHT22;38228;50.940;4.024;2024-01-30T05:57:59;10.10;99.90
52275;DHT22;38228;50.940;4.024;2024-01-30T06:00:25;10.10;99.90
52275;DHT22;38228;50.940;4.024;2024-01-30T06:02:50;10.10;99.90
52275;DHT22;38228;50.940;4.024;2024-01-30T06:05:16;10.10;99.90
52275;DHT22;38228;50.940;4.024;2024-01-30T06:07:42;10.20;99.90
52275;DHT22;38228;50.940;4.024;2024-01-30T06:10:08;10.40;99.90
52275;DHT22;38228;50.940;4.024;2024-01-30T06:12:35;10.40;99.90
52275;DHT22;38228;50.940;4.024;2024-01-30T06:15:01;10.40;99.90
52275;DHT22;38228;50.940;4.024;2024-01-30T06:17:27;10.40;99.90
52275;DHT22;38228;50.940;4.024;2024-01-30T06:19:53;10.30;99.90
52275;DHT22;38228;50.940;4.024;2024-01-30T06:22:19;10.40;99.90
52275;DHT22;38228;50.940;4.024;2024-01-30T06:24:45;10.50;99.90
52275;DHT22;38228;50.940;4.024;2024-01-30T06:27:13;10.40;99.90
52275;DHT22;38228;50.940;4.024;2024-01-30T06:29:40;10.40;99.90
52275;DHT22;38228;50.940;4.024;2024-01-30T06:32:06;10.40;99.90
52275;DHT22;38228;50.940;4.024;2024-01-30T06:34:32;10.40;99.90
52275;DHT22;38228;50.940;4.024;2024-01-30T06:36:57;10.50;99.90
52275;DHT22;38228;50.940;4.024;2024-01-30T06:39:23;10.40;99.90
52275;DHT22;38228;50.940;4.024;2024-01-30T06:41:49;10.40;99.90
52275;DHT22;38228;50.940;4.024;2024-01-30T06:44:15;10.50;99.90
52275;DHT22;38228;50.940;4.024;2024-01-30T06:46:40;10.50;99.90
52275;DHT22;38228;50.940;4.024;2024-01-30T06:49:06;10.60;99.90
52275;DHT22;38228;50.940;4.024;2024-01-30T06:51:32;10.50;99.90
52275;DHT22;38228;50.940;4.024;2024-01-30T06:53:57;10.70;99.90
52275;DHT22;38228;50.940;4.024;2024-01-30T06:56:23;10.60;99.90
52275;DHT22;38228;50.940;4.024;2024-01-30T06:58:50;10.60;99.90
52275;DHT22;38228;50.940;4.024;2024-01-30T07:01:16;10.60;99.90
52275;DHT22;38228;50.940;4.024;2024-01-30T07:03:42;10.70;99.90
52275;DHT22;38228;50.940;4.024;2024-01-30T07:06:09;10.70;99.90
52275;DHT22;38228;50.940;4.024;2024-01-30T07:08:36;10.80;99.90
52275;DHT22;38228;50.940;4.024;2024-01-30T07:11:05;10.80;99.90
52275;DHT22;38228;50.940;4.024;2024-01-30T07:13:31;10.90;99.90
52275;DHT22;38228;50.940;4.024;2024-01-30T07:15:57;10.90;99.90
52275;DHT22;38228;50.940;4.024;2024-01-30T07:18:23;10.90;99.90
52275;DHT22;38228;50.940;4.024;2024-01-30T07:20:49;10.80;99.90
52275;DHT22;38228;50.940;4.024;2024-01-30T07:23:16;10.90;99.90
52275;DHT22;38228;50.940;4.024;2024-01-30T07:25:46;10.90;99.90
52275;DHT22;38228;50.940;4.024;2024-01-30T07:28:14;11.00;99.90
52275;DHT22;38228;50.940;4.024;2024-01-30T07:30:42;11.10;99.90
52275;DHT22;38228;50.940;4.024;2024-01-30T07:33:08;11.10;99.90
52275;DHT22;38228;50.940;4.024;2024-01-30T07:35:35;11.10;99.90
52275;DHT22;38228;50.940;4.024;2024-01-30T07:38:01;11.20;99.90
52275;DHT22;38228;50.940;4.024;2024-01-30T07:40:27;11.30;99.90
52275;DHT22;38228;50.940;4.024;2024-01-30T07:42:54;11.30;99.90
52275;DHT22;38228;50.940;4.024;2024-01-30T07:45:19;11.30;99.90
52275;DHT22;38228;50.940;4.024;2024-01-30T07:47:50;11.30;99.90
52275;DHT22;38228;50.940;4.024;2024-01-30T07:50:16;11.30;99.90
52275;DHT22;38228;50.940;4.024;2024-01-30T07:52:43;11.20;99.90
52275;DHT22;38228;50.940;4.024;2024-01-30T07:55:09;11.20;99.90
52275;DHT22;38228;50.940;4.024;2024-01-30T07:57:35;11.20;99.90
52275;DHT22;38228;50.940;4.024;2024-01-30T08:00:01;11.10;99.90
52275;DHT22;38228;50.940;4.024;2024-01-30T08:02:28;11.10;99.90
52275;DHT22;38228;50.940;4.024;2024-01-30T08:04:54;11.20;99.90
52275;DHT22;38228;50.940;4.024;2024-01-30T08:07:19;11.30;99.90
52275;DHT22;38228;50.940;4.024;2024-01-30T08:09:47;11.20;99.90
52275;DHT22;38228;50.940;4.024;2024-01-30T08:12:13;11.30;99.90
52275;DHT22;38228;50.940;4.024;2024-01-30T08:14:39;11.40;99.90
52275;DHT22;38228;50.940;4.024;2024-01-30T08:17:06;11.40;99.90
52275;DHT22;38228;50.940;4.024;2024-01-30T08:19:33;11.40;99.90
52275;DHT22;38228;50.940;4.024;2024-01-30T08:21:59;11.30;99.90
52275;DHT22;38228;50.940;4.024;2024-01-30T08:24:24;11.20;99.90
52275;DHT22;38228;50.940;4.024;2024-01-30T08:26:50;11.30;99.90
52275;DHT22;38228;50.940;4.024;2024-01-30T08:29:16;11.30;99.90
52275;DHT22;38228;50.940;4.024;2024-01-30T08:31:42;11.40;99.90
52275;DHT22;38228;50.940;4.024;2024-01-30T08:34:07;11.40;99.90
52275;DHT22;38228;50.940;4.024;2024-01-30T08:36:33;11.40;99.90
52275;DHT22;38228;50.940;4.024;2024-01-30T08:38:59;11.50;99.90
52275;DHT22;38228;50.940;4.024;2024-01-30T08:41:25;11.70;99.90
52275;DHT22;38228;50.940;4.024;2024-01-30T08:43:52;11.50;99.90
52275;DHT22;38228;50.940;4.024;2024-01-30T08:46:20;11.60;99.90
52275;DHT22;38228;50.940;4.024;2024-01-30T08:48:46;11.60;99.90
52275;DHT22;38228;50.940;4.024;2024-01-30T08:51:13;11.50;99.90
52275;DHT22;38228;50.940;4.024;2024-01-30T08:53:40;11.40;99.90
52275;DHT22;38228;50.940;4.024;2024-01-30T08:56:07;11.40;99.90
52275;DHT22;38228;50.940;4.024;2024-01-30T08:58:32;11.40;99.90
52275;DHT22;38228;50.940;4.024;2024-01-30T09:00:58;11.30;99.90
52275;DHT22;38228;50.940;4.024;2024-01-30T09:03:24;11.20;99.90
52275;DHT22;38228;50.940;4.024;2024-01-30T09:05:50;11.20;99.90
52275;DHT22;38228;50.940;4.024;2024-01-30T09:08:16;11.10;99.90
52275;DHT22;38228;50.940;4.024;2024-01-30T09:10:42;11.10;99.90
52275;DHT22;38228;50.940;4.024;2024-01-30T09:13:08;11.20;99.90
52275;DHT22;38228;50.940;4.024;2024-01-30T09:15:33;11.20;99.90
52275;DHT22;38228;50.940;4.024;2024-01-30T09:17:59;11.30;99.90
52275;DHT22;38228;50.940;4.024;2024-01-30T09:20:25;11.30;99.90
52275;DHT22;38228;50.940;4.024;2024-01-30T09:22:50;11.30;99.90
52275;DHT22;38228;50.940;4.024;2024-01-30T09:25:16;11.20;99.90
52275;DHT22;38228;50.940;4.024;2024-01-30T09:27:44;11.20;99.90
52275;DHT22;38228;50.940;4.024;2024-01-30T09:30:10;11.20;99.90
52275;DHT22;38228;50.940;4.024;2024-01-30T09:32:36;11.40;99.90
52275;DHT22;38228;50.940;4.024;2024-01-30T09:35:01;11.50;99.90
52275;DHT22;38228;50.940;4.024;2024-01-30T09:37:27;11.70;99.90
52275;DHT22;38228;50.940;4.024;2024-01-30T09:39:53;11.80;99.90
52275;DHT22;38228;50.940;4.024;2024-01-30T09:42:35;11.80;99.90
52275;DHT22;38228;50.940;4.024;2024-01-30T09:45:04;11.70;99.90
52275;DHT22;38228;50.940;4.024;2024-01-30T09:47:41;11.70;99.90
52275;DHT22;38228;50.940;4.024;2024-01-30T09:50:09;11.80;99.90
52275;DHT22;38228;50.940;4.024;2024-01-30T09:52:35;11.80;99.90
52275;DHT22;38228;50.940;4.024;2024-01-30T09:55:01;11.80;99.90
52275;DHT22;38228;50.940;4.024;2024-01-30T09:57:28;11.70;99.90
52275;DHT22;38228;50.940;4.024;2024-01-30T09:59:53;11.80;99.90
52275;DHT22;38228;50.940;4.024;2024-01-30T10:02:20;11.80;99.90
52275;DHT22;38228;50.940;4.024;2024-01-30T10:04:50;11.90;99.90
52275;DHT22;38228;50.940;4.024;2024-01-30T10:07:16;11.90;99.90
52275;DHT22;38228;50.940;4.024;2024-01-30T10:09:42;12.00;99.90
52275;DHT22;38228;50.940;4.024;2024-01-30T10:12:11;12.00;99.90
52275;DHT22;38228;50.940;4.024;2024-01-30T10:14:41;11.90;99.90
52275;DHT22;38228;50.940;4.024;2024-01-30T10:17:11;11.80;99.90
52275;DHT22;38228;50.940;4.024;2024-01-30T10:19:37;11.70;99.90
52275;DHT22;38228;50.940;4.024;2024-01-30T10:22:04;11.60;99.90
52275;DHT22;38228;50.940;4.024;2024-01-30T10:24:30;11.40;99.90
52275;DHT22;38228;50.940;4.024;2024-01-30T10:26:56;11.40;99.90
52275;DHT22;38228;50.940;4.024;2024-01-30T10:29:22;11.20;99.90
52275;DHT22;38228;50.940;4.024;2024-01-30T10:32:04;11.20;99.90
52275;DHT22;38228;50.940;4.024;2024-01-30T10:34:31;11.00;99.90
52275;DHT22;38228;50.940;4.024;2024-01-30T10:39:24;10.90;99.90
52275;DHT22;38228;50.940;4.024;2024-01-30T10:41:53;11.00;99.90
52275;DHT22;38228;50.940;4.024;2024-01-30T10:44:22;11.00;99.90
52275;DHT22;38228;50.940;4.024;2024-01-30T10:46:53;10.90;99.90
52275;DHT22;38228;50.940;4.024;2024-01-30T10:49:23;11.10;99.90
52275;DHT22;38228;50.940;4.024;2024-01-30T10:51:50;11.20;99.90
52275;DHT22;38228;50.940;4.024;2024-01-30T10:54:18;11.00;99.90
52275;DHT22;38228;50.940;4.024;2024-01-30T10:56:45;11.00;99.90
52275;DHT22;38228;50.940;4.024;2024-01-30T10:59:12;11.20;99.90
52275;DHT22;38228;50.940;4.024;2024-01-30T11:01:39;11.30;99.90
52275;DHT22;38228;50.940;4.024;2024-01-30T11:04:05;11.30;99.90
52275;DHT22;38228;50.940;4.024;2024-01-30T11:06:31;11.20;99.90
52275;DHT22;38228;50.940;4.024;2024-01-30T11:09:05;10.90;99.90
52275;DHT22;38228;50.940;4.024;2024-01-30T11:11:57;11.00;99.90
52275;DHT22;38228;50.940;4.024;2024-01-30T11:14:28;11.00;99.90
52275;DHT22;38228;50.940;4.024;2024-01-30T11:16:58;11.10;99.90
52275;DHT22;38228;50.940;4.024;2024-01-30T11:19:26;11.30;99.90
52275;DHT22;38228;50.940;4.024;2024-01-30T11:21:55;11.40;99.90
52275;DHT22;38228;50.940;4.024;2024-01-30T11:24:23;11.50;99.90
52275;DHT22;38228;50.940;4.024;2024-01-30T11:26:56;11.80;99.90
52275;DHT22;38228;50.940;4.024;2024-01-30T11:29:25;11.90;99.90
52275;DHT22;38228;50.940;4.024;2024-01-30T11:31:56;12.10;99.90
52275;DHT22;38228;50.940;4.024;2024-01-30T11:34:22;12.20;99.90
52275;DHT22;38228;50.940;4.024;2024-01-30T11:36:52;12.30;99.90
52275;DHT22;38228;50.940;4.024;2024-01-30T11:39:28;12.40;99.90
52275;DHT22;38228;50.940;4.024;2024-01-30T11:41:55;12.30;99.90
52275;DHT22;38228;50.940;4.024;2024-01-30T11:44:22;12.20;99.90
52275;DHT22;38228;50.940;4.024;2024-01-30T11:46:51;12.10;99.90
52275;DHT22;38228;50.940;4.024;2024-01-30T11:49:18;12.10;99.90
52275;DHT22;38228;50.940;4.024;2024-01-30T11:51:47;12.10;99.90
52275;DHT22;38228;50.940;4.024;2024-01-30T11:54:15;12.10;99.90
52275;DHT22;38228;50.940;4.024;2024-01-30T11:56:42;12.00;99.90
52275;DHT22;38228;50.940;4.024;2024-01-30T11:59:08;11.90;99.90
52275;DHT22;38228;50.940;4.024;2024-01-30T12:01:34;11.60;99.90
52275;DHT22;38228;50.940;4.024;2024-01-30T12:04:00;11.60;99.90
52275;DHT22;38228;50.940;4.024;2024-01-30T12:06:26;11.60;99.90
52275;DHT22;38228;50.940;4.024;2024-01-30T12:09:01;11.60;99.90
52275;DHT22;38228;50.940;4.024;2024-01-30T12:11:29;11.60;99.90
52275;DHT22;38228;50.940;4.024;2024-01-30T12:13:56;11.80;99.90
52275;DHT22;38228;50.940;4.024;2024-01-30T12:16:22;11.90;99.90
52275;DHT22;38228;50.940;4.024;2024-01-30T12:18:48;12.00;99.90
52275;DHT22;38228;50.940;4.024;2024-01-30T12:21:17;11.90;99.90
52275;DHT22;38228;50.940;4.024;2024-01-30T12:23:44;11.90;99.90
52275;DHT22;38228;50.940;4.024;2024-01-30T12:26:11;12.00;99.90
52275;DHT22;38228;50.940;4.024;2024-01-30T12:28:36;11.80;99.90
52275;DHT22;38228;50.940;4.024;2024-01-30T12:31:03;11.60;99.90
52275;DHT22;38228;50.940;4.024;2024-01-30T12:33:29;11.80;99.90
52275;DHT22;38228;50.940;4.024;2024-01-30T12:35:56;11.60;99.90
52275;DHT22;38228;50.940;4.024;2024-01-30T12:38:25;11.50;99.90
52275;DHT22;38228;50.940;4.024;2024-01-30T12:40:59;11.20;99.90
52275;DHT22;38228;50.940;4.024;2024-01-30T12:43:25;11.20;99.90
52275;DHT22;38228;50.940;4.024;2024-01-30T12:45:55;11.30;99.90
52275;DHT22;38228;50.940;4.024;2024-01-30T12:48:20;11.30;99.90
52275;DHT22;38228;50.940;4.024;2024-01-30T12:50:46;11.30;99.90
52275;DHT22;38228;50.940;4.024;2024-01-30T12:53:12;11.20;99.90
52275;DHT22;38228;50.940;4.024;2024-01-30T12:55:38;11.20;99.90
52275;DHT22;38228;50.940;4.024;2024-01-30T12:58:04;10.90;99.90
52275;DHT22;38228;50.940;4.024;2024-01-30T13:00:30;10.70;99.90
52275;DHT22;38228;50.940;4.024;2024-01-30T13:02:56;10.70;99.90
52275;DHT22;38228;50.940;4.024;2024-01-30T13:05:21;10.90;99.90
52275;DHT22;38228;50.940;4.024;2024-01-30T13:07:47;10.80;99.90
52275;DHT22;38228;50.940;4.024;2024-01-30T13:10:13;10.90;99.90
52275;DHT22;38228;50.940;4.024;2024-01-30T13:12:39;11.00;99.90
52275;DHT22;38228;50.940;4.024;2024-01-30T13:15:05;10.90;99.90
52275;DHT22;38228;50.940;4.024;2024-01-30T13:17:32;10.80;99.90
52275;DHT22;38228;50.940;4.024;2024-01-30T13:20:03;10.60;99.90
52275;DHT22;38228;50.940;4.024;2024-01-30T13:22:29;10.50;99.90
52275;DHT22;38228;50.940;4.024;2024-01-30T13:24:55;10.50;99.90
52275;DHT22;38228;50.940;4.024;2024-01-30T13:27:21;10.50;99.90
52275;DHT22;38228;50.940;4.024;2024-01-30T13:29:47;10.60;99.90
52275;DHT22;38228;50.940;4.024;2024-01-30T13:32:12;10.60;99.90
52275;DHT22;38228;50.940;4.024;2024-01-30T13:34:38;10.50;99.90
52275;DHT22;38228;50.940;4.024;2024-01-30T13:37:05;10.40;99.90
52275;DHT22;38228;50.940;4.024;2024-01-30T13:39:31;10.40;99.90
52275;DHT22;38228;50.940;4.024;2024-01-30T13:41:57;10.30;99.90
52275;DHT22;38228;50.940;4.024;2024-01-30T13:44:22;10.50;99.90
52275;DHT22;38228;50.940;4.024;2024-01-30T13:46:48;10.40;99.90
52275;DHT22;38228;50.940;4.024;2024-01-30T13:49:14;10.30;99.90
52275;DHT22;38228;50.940;4.024;2024-01-30T13:51:40;10.30;99.90
52275;DHT22;38228;50.940;4.024;2024-01-30T13:54:05;10.20;99.90
52275;DHT22;38228;50.940;4.024;2024-01-30T13:56:31;10.20;99.90
52275;DHT22;38228;50.940;4.024;2024-01-30T13:58:57;10.20;99.90
52275;DHT22;38228;50.940;4.024;2024-01-30T14:01:23;10.20;99.90
52275;DHT22;38228;50.940;4.024;2024-01-30T14:03:49;10.30;99.90
52275;DHT22;38228;50.940;4.024;2024-01-30T14:06:15;10.30;99.90
52275;DHT22;38228;50.940;4.024;2024-01-30T14:08:41;10.30;99.90
52275;DHT22;38228;50.940;4.024;2024-01-30T14:11:06;10.30;99.90
52275;DHT22;38228;50.940;4.024;2024-01-30T14:13:32;10.30;99.90
52275;DHT22;38228;50.940;4.024;2024-01-30T14:15:58;10.30;99.90
52275;DHT22;38228;50.940;4.024;2024-01-30T14:18:24;10.40;99.90
52275;DHT22;38228;50.940;4.024;2024-01-30T14:20:51;10.40;99.90
52275;DHT22;38228;50.940;4.024;2024-01-30T14:23:17;10.40;99.90
52275;DHT22;38228;50.940;4.024;2024-01-30T14:25:43;10.40;99.90
52275;DHT22;38228;50.940;4.024;2024-01-30T14:28:10;10.50;99.90
52275;DHT22;38228;50.940;4.024;2024-01-30T14:30:35;10.40;99.90
52275;DHT22;38228;50.940;4.024;2024-01-30T14:33:02;10.50;99.90
52275;DHT22;38228;50.940;4.024;2024-01-30T14:35:27;10.40;99.90
52275;DHT22;38228;50.940;4.024;2024-01-30T14:37:53;10.50;99.90
52275;DHT22;38228;50.940;4.024;2024-01-30T14:40:19;10.60;99.90
52275;DHT22;38228;50.940;4.024;2024-01-30T14:42:45;10.50;99.90
52275;DHT22;38228;50.940;4.024;2024-01-30T14:45:11;10.30;99.90
52275;DHT22;38228;50.940;4.024;2024-01-30T14:47:37;10.30;99.90
52275;DHT22;38228;50.940;4.024;2024-01-30T14:50:03;10.40;99.90
52275;DHT22;38228;50.940;4.024;2024-01-30T14:52:30;10.20;99.90
52275;DHT22;38228;50.940;4.024;2024-01-30T14:54:57;10.10;99.90
52275;DHT22;38228;50.940;4.024;2024-01-30T14:57:24;10.20;99.90
52275;DHT22;38228;50.940;4.024;2024-01-30T14:59:49;10.20;99.90
52275;DHT22;38228;50.940;4.024;2024-01-30T15:02:15;10.20;99.90
52275;DHT22;38228;50.940;4.024;2024-01-30T15:04:41;10.10;99.90
52275;DHT22;38228;50.940;4.024;2024-01-30T15:07:07;10.10;99.90
52275;DHT22;38228;50.940;4.024;2024-01-30T15:09:33;10.20;99.90
52275;DHT22;38228;50.940;4.024;2024-01-30T15:12:00;10.00;99.90
52275;DHT22;38228;50.940;4.024;2024-01-30T15:14:26;10.20;99.90
52275;DHT22;38228;50.940;4.024;2024-01-30T15:16:52;10.00;99.90
52275;DHT22;38228;50.940;4.024;2024-01-30T15:19:18;9.90;99.90
52275;DHT22;38228;50.940;4.024;2024-01-30T15:21:43;10.00;99.90
52275;DHT22;38228;50.940;4.024;2024-01-30T15:24:09;10.00;99.90
52275;DHT22;38228;50.940;4.024;2024-01-30T15:26:38;9.90;99.90
52275;DHT22;38228;50.940;4.024;2024-01-30T15:29:04;9.90;99.90
52275;DHT22;38228;50.940;4.024;2024-01-30T15:31:30;9.70;99.90